Time;durP1;ratioP1;P1;durP2;ratioP2;P2;SDS_P1;SDS_P2;PMS_P1;PMS_P2;Temp;Humidity;BMP_temperature;BMP_pressure;BME280_temperature;BME280_humidity;BME280_pressure;Samples;Min_cycle;Max_cycle;Signal;HPM_P1;HPM_P2
2022/11/07 00:01:11;;;;;;;19.15;11.30;;;;;;;;;;5033248;28;20056;-78
2022/11/07 00:03:37;;;;;;;17.45;10.40;;;;;;;;;;5032046;28;20047;-78
2022/11/07 00:06:03;;;;;;;12.55;9.43;;;;;;;;;;5033983;28;20125;-78
2022/11/07 00:08:32;;;;;;;16.80;9.82;;;;;;;;;;5033327;28;20052;-78
2022/11/07 00:10:58;;;;;;;13.63;9.40;;;;;;;;;;5033487;28;20053;-78
2022/11/07 00:13:26;;;;;;;12.88;9.77;;;;;;;;;;5033153;28;20358;-78
2022/11/07 00:15:53;;;;;;;14.52;9.30;;;;;;;;;;5033117;28;20045;-79
2022/11/07 00:18:19;;;;;;;14.07;8.82;;;;;;;;;;5033384;28;20081;-78
2022/11/07 00:20:45;;;;;;;13.93;9.13;;;;;;;;;;5032958;28;20072;-79
2022/11/07 00:23:11;;;;;;;10.63;8.30;;;;;;;;;;5033101;28;20053;-79
2022/11/07 00:25:37;;;;;;;15.30;9.25;;;;;;;;;;5014630;28;20038;-78
2022/11/07 00:28:03;;;;;;;15.68;8.68;;;;;;;;;;5013583;28;20046;-78
2022/11/07 00:30:29;;;;;;;14.60;9.43;;;;;;;;;;5028415;28;20077;-79
2022/11/07 00:32:55;;;;;;;13.93;8.68;;;;;;;;;;5045611;28;20046;-79
2022/11/07 00:35:21;;;;;;;13.63;9.10;;;;;;;;;;5032758;28;20045;-79
2022/11/07 00:37:47;;;;;;;16.25;9.00;;;;;;;;;;5033197;28;20046;-78
2022/11/07 00:40:13;;;;;;;12.93;9.48;;;;;;;;;;5033382;28;20090;-78
2022/11/07 00:42:39;;;;;;;15.55;8.75;;;;;;;;;;5037165;28;20045;-78
2022/11/07 00:45:06;;;;;;;13.90;9.25;;;;;;;;;;5036952;28;20175;-78
2022/11/07 00:47:32;;;;;;;13.30;8.57;;;;;;;;;;5035623;28;20440;-78
2022/11/07 00:49:58;;;;;;;16.83;9.23;;;;;;;;;;5036749;28;20508;-78
2022/11/07 00:52:24;;;;;;;12.38;8.65;;;;;;;;;;5036737;28;20397;-78
2022/11/07 00:54:50;;;;;;;18.13;8.90;;;;;;;;;;5020711;28;20045;-78
2022/11/07 00:57:16;;;;;;;14.93;9.07;;;;;;;;;;5015553;28;20144;-78
2022/11/07 00:59:42;;;;;;;11.65;8.70;;;;;;;;;;5017008;28;20556;-78
2022/11/07 01:02:08;;;;;;;16.15;9.35;;;;;;;;;;5017467;28;20084;-78
2022/11/07 01:07:19;;;;;;;15.15;8.63;;;;;;;;;;5035539;28;20053;-77
2022/11/07 01:09:45;;;;;;;12.40;8.10;;;;;;;;;;5037404;28;20046;-76
2022/11/07 01:12:11;;;;;;;11.98;8.13;;;;;;;;;;5036318;28;20056;-76
2022/11/07 01:14:37;;;;;;;11.73;8.20;;;;;;;;;;5036648;28;20460;-77
2022/11/07 01:17:04;;;;;;;14.63;7.85;;;;;;;;;;5037676;28;20497;-77
2022/11/07 01:19:30;;;;;;;13.70;7.53;;;;;;;;;;5036737;28;20125;-78
2022/11/07 01:21:56;;;;;;;12.00;6.93;;;;;;;;;;5036337;28;20049;-78
2022/11/07 01:24:22;;;;;;;10.90;7.00;;;;;;;;;;5036240;28;20084;-78
2022/11/07 01:26:50;;;;;;;11.88;7.18;;;;;;;;;;5036435;28;20505;-78
2022/11/07 01:29:17;;;;;;;13.20;7.45;;;;;;;;;;5036638;28;20053;-78
2022/11/07 01:31:43;;;;;;;14.55;8.20;;;;;;;;;;5036789;28;20092;-78
2022/11/07 01:34:10;;;;;;;13.25;8.27;;;;;;;;;;5036613;28;20088;-78
2022/11/07 01:36:36;;;;;;;12.35;7.25;;;;;;;;;;5035910;28;20457;-78
2022/11/07 01:39:02;;;;;;;14.32;7.85;;;;;;;;;;5036074;28;20041;-78
2022/11/07 01:41:30;;;;;;;13.93;7.78;;;;;;;;;;5036077;28;20049;-78
2022/11/07 01:43:56;;;;;;;13.15;7.22;;;;;;;;;;5034753;28;20049;-78
2022/11/07 01:46:26;;;;;;;13.50;7.35;;;;;;;;;;5035797;28;20481;-78
2022/11/07 01:49:03;;;;;;;14.50;7.35;;;;;;;;;;5036123;28;20042;-78
2022/11/07 01:51:31;;;;;;;12.88;7.63;;;;;;;;;;5036208;28;20053;-78
2022/11/07 01:53:57;;;;;;;13.25;8.55;;;;;;;;;;5034987;28;20073;-78
2022/11/07 01:56:25;;;;;;;13.68;7.72;;;;;;;;;;5035893;28;20099;-78
2022/11/07 01:58:52;;;;;;;16.48;8.02;;;;;;;;;;5035415;28;20087;-77
2022/11/07 02:01:18;;;;;;;17.58;8.32;;;;;;;;;;5037634;28;20053;-76
2022/11/07 02:03:45;;;;;;;16.88;8.23;;;;;;;;;;5037253;28;20046;-76
2022/11/07 02:06:16;;;;;;;14.50;7.40;;;;;;;;;;5036961;28;20123;-75
2022/11/07 02:08:44;;;;;;;12.77;7.65;;;;;;;;;;5035766;28;20074;-76
2022/11/07 02:11:11;;;;;;;14.50;7.55;;;;;;;;;;5035535;28;20049;-76
2022/11/07 02:13:37;;;;;;;17.63;8.05;;;;;;;;;;5034783;28;20415;-77
2022/11/07 02:16:03;;;;;;;12.40;6.80;;;;;;;;;;5035497;28;20046;-76
2022/11/07 02:18:30;;;;;;;13.18;6.88;;;;;;;;;;5035727;28;20068;-76
2022/11/07 02:20:58;;;;;;;16.02;6.40;;;;;;;;;;5036084;28;20048;-75
2022/11/07 02:23:33;;;;;;;13.38;5.90;;;;;;;;;;5036543;28;20056;-76
2022/11/07 02:25:59;;;;;;;11.27;5.03;;;;;;;;;;5035240;28;20053;-76
2022/11/07 02:28:27;;;;;;;10.63;5.40;;;;;;;;;;5035222;28;20459;-76
2022/11/07 02:30:53;;;;;;;12.50;5.80;;;;;;;;;;5035071;28;20067;-76
2022/11/07 02:33:21;;;;;;;12.57;6.35;;;;;;;;;;5036834;28;20100;-76
2022/11/07 02:35:49;;;;;;;12.23;6.07;;;;;;;;;;5040439;28;20044;-75
2022/11/07 02:38:17;;;;;;;9.43;6.15;;;;;;;;;;5036918;28;20037;-76
2022/11/07 02:40:44;;;;;;;17.05;7.10;;;;;;;;;;5035273;28;20049;-76
2022/11/07 02:43:11;;;;;;;12.18;6.20;;;;;;;;;;5034701;28;20048;-77
2022/11/07 02:45:39;;;;;;;12.63;6.40;;;;;;;;;;5034712;28;20054;-77
2022/11/07 02:48:05;;;;;;;17.70;6.40;;;;;;;;;;5034764;28;20077;-77
2022/11/07 02:50:31;;;;;;;13.98;5.95;;;;;;;;;;5034400;28;20392;-77
2022/11/07 02:52:57;;;;;;;12.45;5.95;;;;;;;;;;5034736;28;20046;-77
2022/11/07 02:55:23;;;;;;;12.23;5.75;;;;;;;;;;5034292;28;20448;-77
2022/11/07 02:57:50;;;;;;;9.65;4.78;;;;;;;;;;5034461;28;20049;-77
2022/11/07 03:00:16;;;;;;;10.65;5.00;;;;;;;;;;5034517;28;20048;-77
2022/11/07 03:02:46;;;;;;;10.90;4.68;;;;;;;;;;5034488;28;20046;-77
2022/11/07 03:05:13;;;;;;;8.90;4.20;;;;;;;;;;5033368;28;20045;-77
2022/11/07 03:07:40;;;;;;;10.50;4.00;;;;;;;;;;5033933;28;20492;-77
2022/11/07 03:10:06;;;;;;;10.50;3.95;;;;;;;;;;5034280;28;20045;-78
2022/11/07 03:12:33;;;;;;;8.98;3.70;;;;;;;;;;5034208;28;20087;-77
2022/11/07 03:14:59;;;;;;;8.80;4.03;;;;;;;;;;5034591;28;20084;-77
2022/11/07 03:17:25;;;;;;;10.82;4.03;;;;;;;;;;5034428;28;20084;-77
2022/11/07 03:19:51;;;;;;;9.48;3.78;;;;;;;;;;5034171;28;20496;-78
2022/11/07 03:22:17;;;;;;;9.25;3.35;;;;;;;;;;5033860;28;20095;-77
2022/11/07 03:24:43;;;;;;;12.50;3.83;;;;;;;;;;5033943;28;20208;-77
2022/11/07 03:27:09;;;;;;;7.63;3.55;;;;;;;;;;5033886;28;20053;-77
2022/11/07 03:29:35;;;;;;;13.05;4.30;;;;;;;;;;5034055;28;20041;-77
2022/11/07 03:32:01;;;;;;;8.65;4.13;;;;;;;;;;5034593;28;20451;-75
2022/11/07 03:34:27;;;;;;;14.70;4.60;;;;;;;;;;5035272;28;20546;-75
2022/11/07 03:36:53;;;;;;;12.73;4.80;;;;;;;;;;5034463;28;20049;-76
2022/11/07 03:39:19;;;;;;;11.25;5.05;;;;;;;;;;5033942;28;20151;-76
2022/11/07 03:41:45;;;;;;;13.60;5.13;;;;;;;;;;5033781;28;20111;-76
2022/11/07 03:44:11;;;;;;;12.10;5.05;;;;;;;;;;5033729;28;20473;-77
2022/11/07 03:46:37;;;;;;;12.27;4.88;;;;;;;;;;5033584;28;20076;-77
2022/11/07 03:49:03;;;;;;;16.83;5.55;;;;;;;;;;5032182;28;20041;-77
2022/11/07 03:51:29;;;;;;;11.23;5.53;;;;;;;;;;5029213;28;20041;-77
2022/11/07 03:53:55;;;;;;;12.20;4.72;;;;;;;;;;5033465;28;20048;-78
2022/11/07 03:56:21;;;;;;;12.63;4.50;;;;;;;;;;5033416;28;20052;-77
2022/11/07 03:58:47;;;;;;;11.60;4.55;;;;;;;;;;5033596;28;20121;-78
2022/11/07 04:01:13;;;;;;;13.02;4.75;;;;;;;;;;5033825;28;20042;-78
2022/11/07 04:03:39;;;;;;;13.95;4.00;;;;;;;;;;5033318;28;20049;-78
2022/11/07 04:06:06;;;;;;;10.57;3.95;;;;;;;;;;5033170;28;20046;-78
2022/11/07 04:08:32;;;;;;;14.18;4.00;;;;;;;;;;5033382;28;20052;-78
2022/11/07 04:10:58;;;;;;;16.48;4.72;;;;;;;;;;5034000;28;20037;-76
2022/11/07 04:18:57;;;;;;;9.50;4.15;;;;;;;;;;5033370;28;20049;-76
2022/11/07 04:21:23;;;;;;;11.48;4.55;;;;;;;;;;5037078;28;20171;-76
2022/11/07 04:23:49;;;;;;;13.02;4.43;;;;;;;;;;5037964;28;20053;-76
2022/11/07 04:29:00;;;;;;;11.77;5.18;;;;;;;;;;5021756;28;20105;-76
2022/11/07 04:31:26;;;;;;;10.35;4.10;;;;;;;;;;5014260;28;20133;-76
2022/11/07 04:33:52;;;;;;;9.55;4.38;;;;;;;;;;5026867;28;20053;-76
2022/11/07 04:36:18;;;;;;;17.00;4.47;;;;;;;;;;5033266;28;20073;-76
2022/11/07 04:38:44;;;;;;;14.15;5.07;;;;;;;;;;5031908;28;20051;-77
2022/11/07 04:41:22;;;;;;;15.05;5.53;;;;;;;;;;5033159;28;20061;-75
2022/11/07 04:43:48;;;;;;;14.32;5.05;;;;;;;;;;5033707;28;20044;-76
2022/11/07 04:46:15;;;;;;;14.20;5.40;;;;;;;;;;5033284;28;20041;-76
2022/11/07 04:48:41;;;;;;;17.38;5.90;;;;;;;;;;5033013;28;20073;-76
2022/11/07 04:51:12;;;;;;;9.18;4.80;;;;;;;;;;5032644;28;20099;-77
2022/11/07 04:53:38;;;;;;;14.35;4.57;;;;;;;;;;5032933;28;20084;-77
2022/11/07 04:56:04;;;;;;;12.90;4.30;;;;;;;;;;5032938;28;20045;-77
2022/11/07 04:58:30;;;;;;;13.32;4.72;;;;;;;;;;5032781;28;20562;-77
2022/11/07 05:00:56;;;;;;;12.10;4.25;;;;;;;;;;5033435;28;20045;-77
2022/11/07 05:03:22;;;;;;;13.48;4.47;;;;;;;;;;5031610;28;20132;-77
2022/11/07 05:05:48;;;;;;;12.02;4.95;;;;;;;;;;5032771;28;20137;-77
2022/11/07 05:08:14;;;;;;;12.32;4.43;;;;;;;;;;5032788;28;20046;-77
2022/11/07 05:10:40;;;;;;;13.38;5.38;;;;;;;;;;5033145;28;20085;-77
2022/11/07 05:13:06;;;;;;;10.73;4.72;;;;;;;;;;5032353;28;20062;-77
2022/11/07 05:15:33;;;;;;;15.00;5.40;;;;;;;;;;5032808;28;20052;-77
2022/11/07 05:17:59;;;;;;;12.95;4.95;;;;;;;;;;5032567;28;20120;-77
2022/11/07 05:20:32;;;;;;;11.18;4.93;;;;;;;;;;5032420;28;20127;-77
2022/11/07 05:23:11;;;;;;;11.85;5.38;;;;;;;;;;5032633;28;20095;-78
2022/11/07 05:25:41;;;;;;;11.75;4.82;;;;;;;;;;5032724;28;20037;-78
2022/11/07 05:28:08;;;;;;;25.25;16.73;;;;;;;;;;5035300;28;20095;-78
2022/11/07 05:30:37;;;;;;;13.27;4.68;;;;;;;;;;5036269;28;20075;-78
2022/11/07 05:33:03;;;;;;;13.50;5.18;;;;;;;;;;5036160;28;20037;-78
2022/11/07 05:35:29;;;;;;;13.50;4.70;;;;;;;;;;5035034;28;20045;-78
2022/11/07 05:37:55;;;;;;;11.93;4.82;;;;;;;;;;5027684;28;20163;-78
2022/11/07 05:40:21;;;;;;;16.38;5.35;;;;;;;;;;5036091;28;20041;-77
2022/11/07 05:42:47;;;;;;;12.80;4.75;;;;;;;;;;5053606;28;20049;-75
2022/11/07 05:45:13;;;;;;;14.07;4.90;;;;;;;;;;5038572;28;20477;-75
2022/11/07 05:47:39;;;;;;;12.05;5.03;;;;;;;;;;5036570;28;20056;-75
2022/11/07 05:50:05;;;;;;;13.13;5.15;;;;;;;;;;5037080;28;20048;-75
2022/11/07 05:52:31;;;;;;;14.98;5.00;;;;;;;;;;5038267;28;20124;-76
2022/11/07 05:54:57;;;;;;;9.55;4.60;;;;;;;;;;5039324;28;20106;-75
2022/11/07 05:57:23;;;;;;;14.65;4.93;;;;;;;;;;5039761;28;20080;-76
2022/11/07 05:59:49;;;;;;;10.45;4.38;;;;;;;;;;5036231;28;20041;-76
2022/11/07 06:02:15;;;;;;;13.52;4.18;;;;;;;;;;5035908;28;20439;-76
2022/11/07 06:04:41;;;;;;;9.65;4.18;;;;;;;;;;5028684;28;20081;-77
2022/11/07 06:07:08;;;;;;;9.00;4.05;;;;;;;;;;5015999;28;20124;-77
2022/11/07 06:09:34;;;;;;;14.27;5.13;;;;;;;;;;5015872;28;20050;-77
2022/11/07 06:12:02;;;;;;;9.18;4.32;;;;;;;;;;5015829;28;20050;-77
2022/11/07 06:14:28;;;;;;;9.00;4.15;;;;;;;;;;5024790;28;20068;-77
2022/11/07 06:16:54;;;;;;;12.88;4.95;;;;;;;;;;5035582;28;20053;-78
2022/11/07 06:19:20;;;;;;;10.80;3.92;;;;;;;;;;5035210;28;20041;-78
2022/11/07 06:21:46;;;;;;;9.57;4.03;;;;;;;;;;5035438;28;20064;-78
2022/11/07 06:24:12;;;;;;;12.82;4.68;;;;;;;;;;5035523;28;20044;-78
2022/11/07 06:26:38;;;;;;;10.93;4.50;;;;;;;;;;5035582;28;20049;-78
2022/11/07 06:29:04;;;;;;;10.68;4.70;;;;;;;;;;5035068;28;20049;-78
2022/11/07 06:31:30;;;;;;;11.30;4.60;;;;;;;;;;5035221;28;20052;-78
2022/11/07 06:33:56;;;;;;;10.85;4.65;;;;;;;;;;5035176;28;20046;-78
2022/11/07 06:36:22;;;;;;;11.40;4.97;;;;;;;;;;5034933;28;20045;-78
2022/11/07 06:38:53;;;;;;;10.13;4.80;;;;;;;;;;5035662;28;20037;-78
2022/11/07 06:41:19;;;;;;;7.82;4.40;;;;;;;;;;5034981;28;20072;-78
2022/11/07 06:43:45;;;;;;;11.00;5.35;;;;;;;;;;5034888;28;20041;-78
2022/11/07 06:46:12;;;;;;;10.30;4.00;;;;;;;;;;5034741;28;20472;-78
2022/11/07 06:48:39;;;;;;;7.20;3.92;;;;;;;;;;5049801;28;20095;-78
2022/11/07 06:51:06;;;;;;;8.57;4.00;;;;;;;;;;5034727;28;20069;-78
2022/11/07 06:53:32;;;;;;;10.15;3.95;;;;;;;;;;5033406;28;20429;-78
2022/11/07 06:56:02;;;;;;;6.53;4.18;;;;;;;;;;5034659;28;20079;-78
2022/11/07 06:58:28;;;;;;;8.95;4.35;;;;;;;;;;5034545;28;20124;-78
2022/11/07 07:00:57;;;;;;;11.07;5.13;;;;;;;;;;5036619;28;20125;-77
2022/11/07 07:03:23;;;;;;;10.38;4.63;;;;;;;;;;5035018;28;20045;-80
2022/11/07 07:05:49;;;;;;;10.70;4.90;;;;;;;;;;5034721;28;20085;-77
2022/11/07 07:08:15;;;;;;;10.48;5.50;;;;;;;;;;5035588;28;20404;-77
2022/11/07 07:10:45;;;;;;;11.65;5.55;;;;;;;;;;5034724;28;20052;-77
2022/11/07 07:13:12;;;;;;;10.32;6.00;;;;;;;;;;5034582;28;20046;-77
2022/11/07 07:15:38;;;;;;;11.38;5.72;;;;;;;;;;5034850;28;20072;-77
2022/11/07 07:18:04;;;;;;;12.15;6.75;;;;;;;;;;5028649;28;20052;-77
2022/11/07 07:20:30;;;;;;;12.35;6.25;;;;;;;;;;5035489;28;20049;-77
2022/11/07 07:22:57;;;;;;;15.93;6.28;;;;;;;;;;5054755;28;20036;-77
2022/11/07 07:25:23;;;;;;;10.10;5.60;;;;;;;;;;5053986;28;20514;-77
2022/11/07 07:27:49;;;;;;;10.25;5.90;;;;;;;;;;5052748;28;20124;-77
2022/11/07 07:30:15;;;;;;;12.98;5.88;;;;;;;;;;5054101;28;20171;-77
2022/11/07 07:32:41;;;;;;;10.60;5.50;;;;;;;;;;5053528;28;20369;-77
2022/11/07 07:35:09;;;;;;;10.57;5.38;;;;;;;;;;5034548;28;20073;-77
2022/11/07 07:37:35;;;;;;;11.52;5.32;;;;;;;;;;5034020;28;20046;-77
2022/11/07 07:40:01;;;;;;;17.25;5.43;;;;;;;;;;5036953;28;20041;-77
2022/11/07 07:42:27;;;;;;;13.00;5.95;;;;;;;;;;5036644;28;20109;-77
2022/11/07 07:44:53;;;;;;;14.27;5.95;;;;;;;;;;5035701;28;20077;-77
2022/11/07 07:47:19;;;;;;;13.90;5.68;;;;;;;;;;5034261;28;20041;-77
2022/11/07 07:49:45;;;;;;;13.25;6.25;;;;;;;;;;5033631;28;20053;-78
2022/11/07 07:52:11;;;;;;;15.07;6.40;;;;;;;;;;5035296;28;20057;-76
2022/11/07 07:54:37;;;;;;;13.65;5.90;;;;;;;;;;5037514;28;20041;-76
2022/11/07 07:57:03;;;;;;;11.10;5.55;;;;;;;;;;5037174;28;20042;-76
2022/11/07 07:59:29;;;;;;;12.05;6.18;;;;;;;;;;5036224;28;20053;-76
2022/11/07 08:01:55;;;;;;;12.15;6.00;;;;;;;;;;5036756;28;20048;-76
2022/11/07 08:04:21;;;;;;;14.27;5.97;;;;;;;;;;5036880;28;20041;-76
2022/11/07 08:06:48;;;;;;;10.85;5.80;;;;;;;;;;5036295;28;20044;-76
2022/11/07 08:09:14;;;;;;;14.20;6.60;;;;;;;;;;5034723;28;20041;-76
2022/11/07 08:11:40;;;;;;;11.95;5.80;;;;;;;;;;5033633;28;20099;-76
2022/11/07 08:14:06;;;;;;;11.45;5.68;;;;;;;;;;5035490;28;20057;-76
2022/11/07 08:16:32;;;;;;;15.55;6.70;;;;;;;;;;5037112;28;20049;-76
2022/11/07 08:18:58;;;;;;;12.30;6.28;;;;;;;;;;5034358;28;20050;-76
2022/11/07 08:21:24;;;;;;;10.77;5.75;;;;;;;;;;5035511;28;20049;-76
2022/11/07 08:23:52;;;;;;;15.02;6.05;;;;;;;;;;5037011;28;20400;-76
2022/11/07 08:26:19;;;;;;;21.02;6.00;;;;;;;;;;5037045;28;20049;-76
2022/11/07 08:28:45;;;;;;;15.07;6.50;;;;;;;;;;5039483;28;20041;-76
2022/11/07 08:31:11;;;;;;;17.35;6.20;;;;;;;;;;5034754;28;20045;-76
2022/11/07 08:33:38;;;;;;;18.60;6.65;;;;;;;;;;5037839;28;20045;-76
2022/11/07 08:36:04;;;;;;;14.38;6.20;;;;;;;;;;5034748;28;20041;-76
2022/11/07 08:38:31;;;;;;;15.88;6.43;;;;;;;;;;5032969;28;20508;-76
2022/11/07 08:40:58;;;;;;;13.30;6.07;;;;;;;;;;5017603;28;20089;-76
2022/11/07 08:43:24;;;;;;;15.60;6.38;;;;;;;;;;5014265;28;20120;-76
2022/11/07 08:45:52;;;;;;;16.92;6.55;;;;;;;;;;5014668;28;20057;-76
2022/11/07 08:48:18;;;;;;;14.00;6.38;;;;;;;;;;5035192;28;20045;-76
2022/11/07 08:50:44;;;;;;;18.08;6.28;;;;;;;;;;5035477;28;20044;-76
2022/11/07 08:53:10;;;;;;;18.00;7.57;;;;;;;;;;5034564;28;20180;-76
2022/11/07 08:55:36;;;;;;;12.43;6.57;;;;;;;;;;5035839;28;20044;-76
2022/11/07 08:58:04;;;;;;;18.77;6.30;;;;;;;;;;5042634;28;20411;-76
2022/11/07 09:00:30;;;;;;;14.43;6.68;;;;;;;;;;5039931;28;20128;-76
2022/11/07 09:02:56;;;;;;;11.77;6.30;;;;;;;;;;5034281;28;20054;-75
2022/11/07 09:05:22;;;;;;;17.92;6.85;;;;;;;;;;5037616;28;20116;-77
2022/11/07 09:07:49;;;;;;;14.23;6.60;;;;;;;;;;5047258;28;20392;-76
2022/11/07 09:10:15;;;;;;;16.02;6.85;;;;;;;;;;5052462;28;20127;-74
2022/11/07 09:12:45;;;;;;;13.20;6.18;;;;;;;;;;5043312;28;20120;-76
2022/11/07 09:15:11;;;;;;;16.38;6.70;;;;;;;;;;5037115;28;20060;-76
2022/11/07 09:17:37;;;;;;;13.35;6.68;;;;;;;;;;5036283;28;20412;-76
2022/11/07 09:20:03;;;;;;;16.38;6.75;;;;;;;;;;5036424;28;20041;-76
2022/11/07 09:22:29;;;;;;;15.10;6.45;;;;;;;;;;5035956;28;20034;-76
2022/11/07 09:24:55;;;;;;;15.55;6.70;;;;;;;;;;5019321;28;20044;-75
2022/11/07 09:27:21;;;;;;;19.73;6.82;;;;;;;;;;5018309;28;20041;-74
2022/11/07 09:29:47;;;;;;;15.80;6.50;;;;;;;;;;5034548;28;20054;-74
2022/11/07 09:32:13;;;;;;;16.35;6.53;;;;;;;;;;5037517;28;20099;-75
2022/11/07 09:34:39;;;;;;;20.55;7.65;;;;;;;;;;5036133;28;20045;-75
2022/11/07 09:37:05;;;;;;;16.27;6.65;;;;;;;;;;5037401;28;20087;-75
2022/11/07 09:39:32;;;;;;;14.45;6.63;;;;;;;;;;5036083;28;20088;-75
2022/11/07 09:42:01;;;;;;;15.60;5.70;;;;;;;;;;5037095;28;20112;-75
2022/11/07 09:44:50;;;;;;;11.38;6.10;;;;;;;;;;5033405;28;20081;-75
2022/11/07 09:47:34;;;;;;;12.43;6.78;;;;;;;;;;5034658;28;20045;-76
2022/11/07 09:50:03;;;;;;;13.60;7.15;;;;;;;;;;5036299;28;20049;-76
2022/11/07 09:52:32;;;;;;;16.17;5.85;;;;;;;;;;5016491;28;20077;-75
2022/11/07 09:55:02;;;;;;;16.20;5.55;;;;;;;;;;5016472;28;20038;-75
2022/11/07 09:57:32;;;;;;;10.90;5.47;;;;;;;;;;5016548;28;20092;-76
2022/11/07 10:00:00;;;;;;;14.38;5.68;;;;;;;;;;5028273;28;20052;-76
2022/11/07 10:02:31;;;;;;;14.32;5.57;;;;;;;;;;5022950;28;20037;-76
2022/11/07 10:04:58;;;;;;;17.52;6.10;;;;;;;;;;5018025;28;20046;-76
2022/11/07 10:07:30;;;;;;;13.20;5.63;;;;;;;;;;5029518;28;20922;-77
2022/11/07 10:10:20;;;;;;;13.32;5.90;;;;;;;;;;5026157;28;20499;-76
2022/11/07 10:12:57;;;;;;;14.98;5.35;;;;;;;;;;5036107;28;20041;-76
2022/11/07 10:15:27;;;;;;;14.65;6.00;;;;;;;;;;5037110;28;20089;-76
2022/11/07 10:18:11;;;;;;;12.98;5.63;;;;;;;;;;5038913;28;20128;-76
2022/11/07 10:20:57;;;;;;;18.75;5.75;;;;;;;;;;5024893;28;20050;-76
2022/11/07 10:23:26;;;;;;;12.98;5.47;;;;;;;;;;5028388;28;20037;-76
2022/11/07 10:25:58;;;;;;;13.52;5.45;;;;;;;;;;5036358;28;20053;-79
2022/11/07 10:28:25;;;;;;;12.45;5.30;;;;;;;;;;5049125;28;20037;-79
2022/11/07 10:30:52;;;;;;;12.55;5.93;;;;;;;;;;5050738;28;20041;-78
2022/11/07 10:33:18;;;;;;;15.60;5.47;;;;;;;;;;5048289;28;20061;-78
2022/11/07 10:35:47;;;;;;;13.75;5.03;;;;;;;;;;5055165;28;20085;-78
2022/11/07 10:38:25;;;;;;;13.25;5.10;;;;;;;;;;5059970;28;20053;-79
2022/11/07 10:40:51;;;;;;;11.65;4.82;;;;;;;;;;5059691;28;20029;-80
2022/11/07 10:43:29;;;;;;;18.05;5.78;;;;;;;;;;5052180;28;20041;-79
2022/11/07 10:45:55;;;;;;;13.65;5.30;;;;;;;;;;5059268;28;20033;-79
2022/11/07 10:48:21;;;;;;;16.65;5.50;;;;;;;;;;5059106;28;20097;-79
2022/11/07 10:50:54;;;;;;;9.68;4.55;;;;;;;;;;5062151;28;20044;-82
2022/11/07 10:53:20;;;;;;;11.50;4.93;;;;;;;;;;5040122;28;20046;-76
2022/11/07 10:55:47;;;;;;;12.85;4.97;;;;;;;;;;5041166;28;20045;-79
2022/11/07 10:58:19;;;;;;;13.32;4.93;;;;;;;;;;5044623;28;20034;-78
2022/11/07 11:00:56;;;;;;;15.10;5.55;;;;;;;;;;5048702;28;20045;-80
2022/11/07 11:03:27;;;;;;;12.70;4.55;;;;;;;;;;5041168;28;20077;-81
2022/11/07 11:05:54;;;;;;;12.27;4.93;;;;;;;;;;5039598;28;20029;-81
2022/11/07 11:08:30;;;;;;;11.20;4.82;;;;;;;;;;5054399;28;20059;-80
2022/11/07 11:10:57;;;;;;;13.52;4.95;;;;;;;;;;5047965;28;20037;-80
2022/11/07 11:13:33;;;;;;;11.52;4.53;;;;;;;;;;5057390;28;20054;-78
2022/11/07 11:16:07;;;;;;;11.57;4.75;;;;;;;;;;5045098;28;20081;-80
2022/11/07 11:18:33;;;;;;;15.80;4.88;;;;;;;;;;5057533;28;20037;-78
2022/11/07 11:21:05;;;;;;;12.27;4.68;;;;;;;;;;5054212;28;20034;-78
2022/11/07 11:23:34;;;;;;;10.40;4.60;;;;;;;;;;5059039;28;20037;-77
2022/11/07 11:26:02;;;;;;;10.60;4.20;;;;;;;;;;5057024;28;20038;-77
2022/11/07 11:28:32;;;;;;;10.55;4.80;;;;;;;;;;5046047;28;20033;-80
2022/11/07 11:31:01;;;;;;;12.85;4.70;;;;;;;;;;5058620;28;20017;-78
2022/11/07 11:33:31;;;;;;;12.57;5.00;;;;;;;;;;5058242;28;20025;-77
2022/11/07 11:36:03;;;;;;;13.38;4.97;;;;;;;;;;5058547;28;20021;-77
2022/11/07 11:38:30;;;;;;;9.70;4.43;;;;;;;;;;5058563;28;20049;-78
2022/11/07 11:41:12;;;;;;;13.23;4.72;;;;;;;;;;5056607;28;20052;-79
2022/11/07 11:43:41;;;;;;;14.55;5.38;;;;;;;;;;5045935;28;20038;-77
2022/11/07 11:46:13;;;;;;;13.73;4.70;;;;;;;;;;5055418;28;20053;-78
2022/11/07 11:48:53;;;;;;;13.80;5.43;;;;;;;;;;5053096;28;20111;-77
2022/11/07 11:51:23;;;;;;;15.23;4.95;;;;;;;;;;5046904;28;20073;-78
2022/11/07 11:53:49;;;;;;;12.50;4.80;;;;;;;;;;5052299;28;20041;-77
2022/11/07 11:56:23;;;;;;;9.80;4.53;;;;;;;;;;5046472;28;20033;-78
2022/11/07 11:58:55;;;;;;;12.80;4.90;;;;;;;;;;5049488;28;20041;-78
2022/11/07 12:01:30;;;;;;;10.48;5.28;;;;;;;;;;5044988;28;20101;-77
2022/11/07 12:04:02;;;;;;;16.17;6.63;;;;;;;;;;5044944;28;20049;-79
2022/11/07 12:06:31;;;;;;;13.18;5.20;;;;;;;;;;5045011;28;20056;-79
2022/11/07 12:09:16;;;;;;;15.32;5.38;;;;;;;;;;5040316;28;20041;-80
2022/11/07 12:11:59;;;;;;;13.82;5.30;;;;;;;;;;5042841;28;20053;-80
2022/11/07 12:14:36;;;;;;;14.25;5.25;;;;;;;;;;5020792;28;20057;-79
2022/11/07 12:17:21;;;;;;;11.77;5.53;;;;;;;;;;5042000;28;20069;-80
2022/11/07 12:19:55;;;;;;;14.55;5.40;;;;;;;;;;5035711;28;20037;-80
2022/11/07 12:22:31;;;;;;;8.80;5.10;;;;;;;;;;5034854;28;20045;-80
2022/11/07 12:25:03;;;;;;;8.25;4.72;;;;;;;;;;5016028;28;20492;-81
2022/11/07 12:27:29;;;;;;;12.10;5.38;;;;;;;;;;5028743;28;20225;-81
2022/11/07 12:30:04;;;;;;;11.02;4.60;;;;;;;;;;5035600;28;20069;-81
2022/11/07 12:32:57;;;;;;;10.98;5.80;;;;;;;;;;5035345;28;20047;-81
2022/11/07 12:35:39;;;;;;;9.63;4.63;;;;;;;;;;5037099;28;20041;-81
2022/11/07 12:38:08;;;;;;;9.20;5.43;;;;;;;;;;5039385;28;20045;-81
2022/11/07 12:40:43;;;;;;;10.73;5.10;;;;;;;;;;5040751;28;20049;-81
2022/11/07 12:43:17;;;;;;;8.98;4.70;;;;;;;;;;5040611;28;20037;-81
2022/11/07 12:45:46;;;;;;;11.10;4.97;;;;;;;;;;5039827;28;20124;-81
2022/11/07 12:48:18;;;;;;;13.07;4.57;;;;;;;;;;5030900;28;20489;-80
2022/11/07 12:51:03;;;;;;;12.73;5.68;;;;;;;;;;5038560;28;20061;-81
2022/11/07 12:53:37;;;;;;;10.82;4.68;;;;;;;;;;5038625;28;20033;-81
2022/11/07 12:56:15;;;;;;;13.70;5.28;;;;;;;;;;5054066;28;20060;-81
2022/11/07 12:58:42;;;;;;;11.00;5.40;;;;;;;;;;5039392;28;20045;-81
2022/11/07 13:01:11;;;;;;;13.23;5.25;;;;;;;;;;5038537;28;20044;-81
2022/11/07 13:03:40;;;;;;;11.45;5.28;;;;;;;;;;5024340;28;20485;-81
2022/11/07 13:06:12;;;;;;;15.02;5.70;;;;;;;;;;5029760;28;20489;-80
2022/11/07 13:08:45;;;;;;;12.25;5.28;;;;;;;;;;5039246;28;20048;-81
2022/11/07 13:11:24;;;;;;;10.43;5.25;;;;;;;;;;5036950;28;20106;-81
2022/11/07 13:14:08;;;;;;;13.23;4.97;;;;;;;;;;5038618;28;20058;-81
2022/11/07 13:16:35;;;;;;;10.93;4.75;;;;;;;;;;5018790;28;20054;-80
2022/11/07 13:19:20;;;;;;;12.35;4.57;;;;;;;;;;5032290;28;20053;-81
2022/11/07 13:21:46;;;;;;;9.23;4.53;;;;;;;;;;5026288;28;20045;-80
2022/11/07 13:24:21;;;;;;;13.85;4.95;;;;;;;;;;5038291;28;20475;-80
2022/11/07 13:26:48;;;;;;;14.37;5.63;;;;;;;;;;5038429;28;20041;-81
2022/11/07 13:29:32;;;;;;;11.82;5.47;;;;;;;;;;5037823;28;20073;-81
2022/11/07 13:32:11;;;;;;;12.73;5.10;;;;;;;;;;5025026;28;20060;-81
2022/11/07 13:34:40;;;;;;;9.98;4.93;;;;;;;;;;5044238;28;20054;-84
2022/11/07 13:37:09;;;;;;;9.68;4.90;;;;;;;;;;5046539;28;20080;-81
2022/11/07 13:39:35;;;;;;;12.02;5.10;;;;;;;;;;5048923;28;20048;-80
2022/11/07 13:42:01;;;;;;;11.35;6.15;;;;;;;;;;5048423;28;20092;-81
2022/11/07 13:44:29;;;;;;;13.15;5.85;;;;;;;;;;5048957;28;20041;-80
2022/11/07 13:46:57;;;;;;;13.38;5.80;;;;;;;;;;5049135;28;20041;-80
2022/11/07 13:49:26;;;;;;;13.05;5.05;;;;;;;;;;5054328;28;20048;-81
2022/11/07 13:51:55;;;;;;;13.10;5.55;;;;;;;;;;5057337;28;20045;-81
2022/11/07 13:54:30;;;;;;;11.38;5.80;;;;;;;;;;5058053;28;20077;-82
2022/11/07 13:56:59;;;;;;;15.75;5.80;;;;;;;;;;5053845;28;20041;-82
2022/11/07 13:59:28;;;;;;;9.32;5.53;;;;;;;;;;5054046;28;20049;-83
2022/11/07 14:01:56;;;;;;;10.77;5.22;;;;;;;;;;5056301;28;20152;-81
2022/11/07 14:04:25;;;;;;;14.73;6.68;;;;;;;;;;5055770;28;20050;-80
2022/11/07 14:06:55;;;;;;;15.38;6.00;;;;;;;;;;5055689;28;20060;-81
2022/11/07 14:09:21;;;;;;;14.02;5.38;;;;;;;;;;5054480;28;20121;-80
2022/11/07 14:11:49;;;;;;;12.52;5.40;;;;;;;;;;5055260;28;20069;-81
2022/11/07 14:14:15;;;;;;;17.55;6.10;;;;;;;;;;5052011;28;20046;-81
2022/11/07 14:16:44;;;;;;;11.95;4.97;;;;;;;;;;5054092;28;20053;-81
2022/11/07 14:19:15;;;;;;;12.43;5.70;;;;;;;;;;5055028;28;20096;-81
2022/11/07 14:21:44;;;;;;;12.65;4.88;;;;;;;;;;5055261;28;20038;-81
2022/11/07 14:24:27;;;;;;;14.27;7.00;;;;;;;;;;5056885;28;20048;-81
2022/11/07 14:27:01;;;;;;;10.52;5.50;;;;;;;;;;5045511;28;20038;-81
2022/11/07 14:29:27;;;;;;;12.80;5.45;;;;;;;;;;5055493;28;20045;-80
2022/11/07 14:31:56;;;;;;;14.80;5.78;;;;;;;;;;5054255;28;20056;-81
2022/11/07 14:34:23;;;;;;;11.85;5.88;;;;;;;;;;5054060;28;20038;-81
2022/11/07 14:36:50;;;;;;;12.95;5.95;;;;;;;;;;5041641;28;20040;-81
2022/11/07 14:39:17;;;;;;;16.83;6.47;;;;;;;;;;5070462;28;20571;-80
2022/11/07 14:41:43;;;;;;;14.75;6.50;;;;;;;;;;5055172;28;20046;-81
2022/11/07 14:44:15;;;;;;;14.77;6.75;;;;;;;;;;5054785;28;20057;-81
2022/11/07 14:46:41;;;;;;;12.20;5.70;;;;;;;;;;5051327;28;20489;-81
2022/11/07 14:49:16;;;;;;;11.93;6.03;;;;;;;;;;5051915;28;20048;-81